sensor_id;sensor_type;location;lat;lon;timestamp;temperature;humidity
18948;DHT22;9607;51.600;7.558;2023-06-04T00:02:20;10.70;99.90
18948;DHT22;9607;51.600;7.558;2023-06-04T00:04:49;10.60;99.90
18948;DHT22;9607;51.600;7.558;2023-06-04T00:07:17;10.60;99.90
18948;DHT22;9607;51.600;7.558;2023-06-04T00:09:45;10.60;99.90
18948;DHT22;9607;51.600;7.558;2023-06-04T00:12:12;10.60;99.90
18948;DHT22;9607;51.600;7.558;2023-06-04T00:14:39;10.50;99.90
18948;DHT22;9607;51.600;7.558;2023-06-04T00:17:07;10.50;99.90
18948;DHT22;9607;51.600;7.558;2023-06-04T00:19:34;10.40;99.90
18948;DHT22;9607;51.600;7.558;2023-06-04T00:22:04;10.40;99.90
18948;DHT22;9607;51.600;7.558;2023-06-04T00:24:37;10.30;99.90
18948;DHT22;9607;51.600;7.558;2023-06-04T00:27:04;10.20;99.90
18948;DHT22;9607;51.600;7.558;2023-06-04T00:29:31;10.20;99.90
18948;DHT22;9607;51.600;7.558;2023-06-04T00:31:58;10.20;99.90
18948;DHT22;9607;51.600;7.558;2023-06-04T00:34:25;10.20;99.90
18948;DHT22;9607;51.600;7.558;2023-06-04T00:36:52;10.10;99.90
18948;DHT22;9607;51.600;7.558;2023-06-04T00:39:18;10.10;99.90
18948;DHT22;9607;51.600;7.558;2023-06-04T00:41:47;10.10;99.90
18948;DHT22;9607;51.600;7.558;2023-06-04T00:44:14;10.10;99.90
18948;DHT22;9607;51.600;7.558;2023-06-04T00:46:41;10.10;99.90
18948;DHT22;9607;51.600;7.558;2023-06-04T00:49:11;10.10;99.90
18948;DHT22;9607;51.600;7.558;2023-06-04T00:51:38;10.10;99.90
18948;DHT22;9607;51.600;7.558;2023-06-04T00:54:06;10.10;99.90
18948;DHT22;9607;51.600;7.558;2023-06-04T00:56:34;10.00;99.90
18948;DHT22;9607;51.600;7.558;2023-06-04T00:59:08;10.10;99.90
18948;DHT22;9607;51.600;7.558;2023-06-04T01:01:40;10.00;99.90
18948;DHT22;9607;51.600;7.558;2023-06-04T01:04:14;10.00;99.90
18948;DHT22;9607;51.600;7.558;2023-06-04T01:06:44;10.00;99.90
18948;DHT22;9607;51.600;7.558;2023-06-04T01:09:11;10.00;99.90
18948;DHT22;9607;51.600;7.558;2023-06-04T01:11:39;10.00;99.90
18948;DHT22;9607;51.600;7.558;2023-06-04T01:14:09;10.00;99.90
18948;DHT22;9607;51.600;7.558;2023-06-04T01:16:39;9.90;99.90
18948;DHT22;9607;51.600;7.558;2023-06-04T01:19:28;9.90;99.90
18948;DHT22;9607;51.600;7.558;2023-06-04T01:22:03;9.80;99.90
18948;DHT22;9607;51.600;7.558;2023-06-04T01:24:34;9.80;99.90
18948;DHT22;9607;51.600;7.558;2023-06-04T01:27:03;9.80;99.90
18948;DHT22;9607;51.600;7.558;2023-06-04T01:29:33;9.80;99.90
18948;DHT22;9607;51.600;7.558;2023-06-04T01:32:01;9.80;99.90
18948;DHT22;9607;51.600;7.558;2023-06-04T01:34:29;9.80;99.90
18948;DHT22;9607;51.600;7.558;2023-06-04T01:36:55;9.80;99.90
18948;DHT22;9607;51.600;7.558;2023-06-04T01:39:22;9.80;99.90
18948;DHT22;9607;51.600;7.558;2023-06-04T01:41:49;9.70;99.90
18948;DHT22;9607;51.600;7.558;2023-06-04T01:44:16;9.70;99.90
18948;DHT22;9607;51.600;7.558;2023-06-04T01:46:44;9.70;99.90
18948;DHT22;9607;51.600;7.558;2023-06-04T01:49:11;9.70;99.90
18948;DHT22;9607;51.600;7.558;2023-06-04T01:51:37;9.60;99.90
18948;DHT22;9607;51.600;7.558;2023-06-04T01:54:04;9.60;99.90
18948;DHT22;9607;51.600;7.558;2023-06-04T01:56:31;9.60;99.90
18948;DHT22;9607;51.600;7.558;2023-06-04T01:58:58;9.50;99.90
18948;DHT22;9607;51.600;7.558;2023-06-04T02:01:26;9.60;99.90
18948;DHT22;9607;51.600;7.558;2023-06-04T02:03:54;9.50;99.90
18948;DHT22;9607;51.600;7.558;2023-06-04T02:06:21;9.40;99.90
18948;DHT22;9607;51.600;7.558;2023-06-04T02:08:50;9.40;99.90
18948;DHT22;9607;51.600;7.558;2023-06-04T02:11:19;9.30;99.90
18948;DHT22;9607;51.600;7.558;2023-06-04T02:13:46;9.20;99.90
18948;DHT22;9607;51.600;7.558;2023-06-04T02:16:13;9.20;99.90
18948;DHT22;9607;51.600;7.558;2023-06-04T02:18:40;9.10;99.90
18948;DHT22;9607;51.600;7.558;2023-06-04T02:21:08;9.00;99.90
18948;DHT22;9607;51.600;7.558;2023-06-04T02:23:35;9.00;99.90
18948;DHT22;9607;51.600;7.558;2023-06-04T02:26:02;8.90;99.90
18948;DHT22;9607;51.600;7.558;2023-06-04T02:28:29;8.90;99.90
18948;DHT22;9607;51.600;7.558;2023-06-04T02:30:55;8.80;99.90
18948;DHT22;9607;51.600;7.558;2023-06-04T02:33:22;8.80;99.90
18948;DHT22;9607;51.600;7.558;2023-06-04T02:35:49;8.70;99.90
18948;DHT22;9607;51.600;7.558;2023-06-04T02:38:17;8.70;99.90
18948;DHT22;9607;51.600;7.558;2023-06-04T02:40:44;8.70;99.90
18948;DHT22;9607;51.600;7.558;2023-06-04T02:43:11;8.60;99.90
18948;DHT22;9607;51.600;7.558;2023-06-04T02:45:38;8.50;99.90
18948;DHT22;9607;51.600;7.558;2023-06-04T02:48:05;8.50;99.90
18948;DHT22;9607;51.600;7.558;2023-06-04T02:50:31;8.40;99.90
18948;DHT22;9607;51.600;7.558;2023-06-04T02:52:58;8.30;99.90
18948;DHT22;9607;51.600;7.558;2023-06-04T02:55:27;8.20;99.90
18948;DHT22;9607;51.600;7.558;2023-06-04T02:57:53;8.20;99.90
18948;DHT22;9607;51.600;7.558;2023-06-04T03:00:20;8.10;99.90
18948;DHT22;9607;51.600;7.558;2023-06-04T03:02:47;8.10;99.90
18948;DHT22;9607;51.600;7.558;2023-06-04T03:05:15;8.10;99.90
18948;DHT22;9607;51.600;7.558;2023-06-04T03:07:44;8.10;99.90
18948;DHT22;9607;51.600;7.558;2023-06-04T03:10:13;8.10;99.90
18948;DHT22;9607;51.600;7.558;2023-06-04T03:12:42;8.10;99.90
18948;DHT22;9607;51.600;7.558;2023-06-04T03:15:09;8.10;99.90
18948;DHT22;9607;51.600;7.558;2023-06-04T03:17:36;8.10;99.90
18948;DHT22;9607;51.600;7.558;2023-06-04T03:20:04;8.10;99.90
18948;DHT22;9607;51.600;7.558;2023-06-04T03:22:32;8.20;99.90
18948;DHT22;9607;51.600;7.558;2023-06-04T03:25:01;8.20;99.90
18948;DHT22;9607;51.600;7.558;2023-06-04T03:27:30;8.20;99.90
18948;DHT22;9607;51.600;7.558;2023-06-04T03:29:58;8.20;99.90
18948;DHT22;9607;51.600;7.558;2023-06-04T03:32:25;8.20;99.90
18948;DHT22;9607;51.600;7.558;2023-06-04T03:34:51;8.20;99.90
18948;DHT22;9607;51.600;7.558;2023-06-04T03:37:18;8.30;99.90
18948;DHT22;9607;51.600;7.558;2023-06-04T03:39:45;8.30;99.90
18948;DHT22;9607;51.600;7.558;2023-06-04T03:42:11;8.20;99.90
18948;DHT22;9607;51.600;7.558;2023-06-04T03:44:38;8.30;99.90
18948;DHT22;9607;51.600;7.558;2023-06-04T03:47:06;8.30;99.90
18948;DHT22;9607;51.600;7.558;2023-06-04T03:49:33;8.30;99.90
18948;DHT22;9607;51.600;7.558;2023-06-04T03:52:00;8.20;99.90
18948;DHT22;9607;51.600;7.558;2023-06-04T03:54:27;8.20;99.90
18948;DHT22;9607;51.600;7.558;2023-06-04T03:56:53;8.30;99.90
18948;DHT22;9607;51.600;7.558;2023-06-04T03:59:20;8.30;99.90
18948;DHT22;9607;51.600;7.558;2023-06-04T04:01:47;8.30;99.90
18948;DHT22;9607;51.600;7.558;2023-06-04T04:04:15;8.30;99.90
18948;DHT22;9607;51.600;7.558;2023-06-04T04:06:42;8.20;99.90
18948;DHT22;9607;51.600;7.558;2023-06-04T04:09:08;8.30;99.90
18948;DHT22;9607;51.600;7.558;2023-06-04T04:11:35;8.30;99.90
18948;DHT22;9607;51.600;7.558;2023-06-04T04:14:02;8.30;99.90
18948;DHT22;9607;51.600;7.558;2023-06-04T04:16:29;8.30;99.90
18948;DHT22;9607;51.600;7.558;2023-06-04T04:18:55;8.40;99.90
18948;DHT22;9607;51.600;7.558;2023-06-04T04:21:23;8.40;99.90
18948;DHT22;9607;51.600;7.558;2023-06-04T04:23:50;8.40;99.90
18948;DHT22;9607;51.600;7.558;2023-06-04T04:26:18;8.50;99.90
18948;DHT22;9607;51.600;7.558;2023-06-04T04:28:44;8.50;99.90
18948;DHT22;9607;51.600;7.558;2023-06-04T04:31:11;8.60;99.90
18948;DHT22;9607;51.600;7.558;2023-06-04T04:33:38;8.60;99.90
18948;DHT22;9607;51.600;7.558;2023-06-04T04:36:06;8.70;99.90
18948;DHT22;9607;51.600;7.558;2023-06-04T04:38:39;8.80;99.90
18948;DHT22;9607;51.600;7.558;2023-06-04T04:41:06;8.90;99.90
18948;DHT22;9607;51.600;7.558;2023-06-04T04:43:34;9.00;99.90
18948;DHT22;9607;51.600;7.558;2023-06-04T04:46:02;9.10;99.90
18948;DHT22;9607;51.600;7.558;2023-06-04T04:48:28;9.20;99.90
18948;DHT22;9607;51.600;7.558;2023-06-04T04:50:55;9.30;99.90
18948;DHT22;9607;51.600;7.558;2023-06-04T04:53:22;9.30;99.90
18948;DHT22;9607;51.600;7.558;2023-06-04T04:55:50;9.40;99.90
18948;DHT22;9607;51.600;7.558;2023-06-04T04:58:17;9.50;99.90
18948;DHT22;9607;51.600;7.558;2023-06-04T05:00:44;9.60;99.90
18948;DHT22;9607;51.600;7.558;2023-06-04T05:03:11;9.70;99.90
18948;DHT22;9607;51.600;7.558;2023-06-04T05:05:37;9.80;99.90
18948;DHT22;9607;51.600;7.558;2023-06-04T05:08:05;9.90;99.90
18948;DHT22;9607;51.600;7.558;2023-06-04T05:10:32;10.10;99.90
18948;DHT22;9607;51.600;7.558;2023-06-04T05:13:02;10.10;99.90
18948;DHT22;9607;51.600;7.558;2023-06-04T05:15:30;10.30;99.90
18948;DHT22;9607;51.600;7.558;2023-06-04T05:17:57;10.30;99.90
18948;DHT22;9607;51.600;7.558;2023-06-04T05:20:26;10.40;99.90
18948;DHT22;9607;51.600;7.558;2023-06-04T05:22:52;10.50;99.90
18948;DHT22;9607;51.600;7.558;2023-06-04T05:25:20;10.60;99.90
18948;DHT22;9607;51.600;7.558;2023-06-04T05:27:48;10.70;99.90
18948;DHT22;9607;51.600;7.558;2023-06-04T05:30:16;10.80;99.90
18948;DHT22;9607;51.600;7.558;2023-06-04T05:32:43;11.00;99.90
18948;DHT22;9607;51.600;7.558;2023-06-04T05:35:10;11.00;99.90
18948;DHT22;9607;51.600;7.558;2023-06-04T05:37:38;11.20;99.90
18948;DHT22;9607;51.600;7.558;2023-06-04T05:40:08;11.30;99.90
18948;DHT22;9607;51.600;7.558;2023-06-04T05:42:36;11.40;99.90
18948;DHT22;9607;51.600;7.558;2023-06-04T05:45:03;11.50;99.90
18948;DHT22;9607;51.600;7.558;2023-06-04T05:47:31;11.60;99.90
18948;DHT22;9607;51.600;7.558;2023-06-04T05:49:58;11.80;99.90
18948;DHT22;9607;51.600;7.558;2023-06-04T05:52:25;11.90;99.90
18948;DHT22;9607;51.600;7.558;2023-06-04T05:54:52;12.00;99.90
18948;DHT22;9607;51.600;7.558;2023-06-04T05:57:19;12.10;99.90
18948;DHT22;9607;51.600;7.558;2023-06-04T05:59:46;12.30;99.90
18948;DHT22;9607;51.600;7.558;2023-06-04T06:02:13;12.40;99.90
18948;DHT22;9607;51.600;7.558;2023-06-04T06:04:41;12.50;99.90
18948;DHT22;9607;51.600;7.558;2023-06-04T06:07:08;12.60;99.90
18948;DHT22;9607;51.600;7.558;2023-06-04T06:09:35;12.70;99.90
18948;DHT22;9607;51.600;7.558;2023-06-04T06:12:02;12.80;99.90
18948;DHT22;9607;51.600;7.558;2023-06-04T06:14:29;12.90;99.90
18948;DHT22;9607;51.600;7.558;2023-06-04T06:16:55;13.10;99.90
18948;DHT22;9607;51.600;7.558;2023-06-04T06:19:24;13.10;99.90
18948;DHT22;9607;51.600;7.558;2023-06-04T06:21:53;13.30;99.90
18948;DHT22;9607;51.600;7.558;2023-06-04T06:24:19;13.40;99.90
18948;DHT22;9607;51.600;7.558;2023-06-04T06:26:46;13.50;99.90
18948;DHT22;9607;51.600;7.558;2023-06-04T06:29:13;13.70;99.90
18948;DHT22;9607;51.600;7.558;2023-06-04T06:31:40;13.70;99.90
18948;DHT22;9607;51.600;7.558;2023-06-04T06:34:06;13.80;99.90
18948;DHT22;9607;51.600;7.558;2023-06-04T06:36:33;13.90;99.90
18948;DHT22;9607;51.600;7.558;2023-06-04T06:39:02;14.00;99.90
18948;DHT22;9607;51.600;7.558;2023-06-04T06:41:28;14.10;99.90
18948;DHT22;9607;51.600;7.558;2023-06-04T06:43:56;14.20;99.90
18948;DHT22;9607;51.600;7.558;2023-06-04T06:46:23;14.20;99.90
18948;DHT22;9607;51.600;7.558;2023-06-04T06:48:50;14.40;99.90
18948;DHT22;9607;51.600;7.558;2023-06-04T06:51:17;14.50;99.90
18948;DHT22;9607;51.600;7.558;2023-06-04T06:53:43;14.60;99.90
18948;DHT22;9607;51.600;7.558;2023-06-04T06:56:14;14.80;99.90
18948;DHT22;9607;51.600;7.558;2023-06-04T06:58:40;14.90;99.90
18948;DHT22;9607;51.600;7.558;2023-06-04T07:01:07;15.10;99.90
18948;DHT22;9607;51.600;7.558;2023-06-04T07:03:34;15.20;99.90
18948;DHT22;9607;51.600;7.558;2023-06-04T07:06:01;15.30;99.90
18948;DHT22;9607;51.600;7.558;2023-06-04T07:08:27;15.40;99.90
18948;DHT22;9607;51.600;7.558;2023-06-04T07:10:54;15.50;99.90
18948;DHT22;9607;51.600;7.558;2023-06-04T07:13:22;15.60;99.90
18948;DHT22;9607;51.600;7.558;2023-06-04T07:15:49;15.80;99.90
18948;DHT22;9607;51.600;7.558;2023-06-04T07:18:16;15.90;99.90
18948;DHT22;9607;51.600;7.558;2023-06-04T07:20:42;16.00;99.90
18948;DHT22;9607;51.600;7.558;2023-06-04T07:23:09;16.10;99.90
18948;DHT22;9607;51.600;7.558;2023-06-04T07:25:36;16.20;99.90
18948;DHT22;9607;51.600;7.558;2023-06-04T07:28:03;16.30;99.90
18948;DHT22;9607;51.600;7.558;2023-06-04T07:30:31;16.40;99.90
18948;DHT22;9607;51.600;7.558;2023-06-04T07:32:58;16.50;99.70
18948;DHT22;9607;51.600;7.558;2023-06-04T07:35:25;16.60;99.40
18948;DHT22;9607;51.600;7.558;2023-06-04T07:37:52;16.60;98.90
18948;DHT22;9607;51.600;7.558;2023-06-04T07:40:19;16.80;98.60
18948;DHT22;9607;51.600;7.558;2023-06-04T07:42:46;16.90;97.80
18948;DHT22;9607;51.600;7.558;2023-06-04T07:45:13;17.00;97.00
18948;DHT22;9607;51.600;7.558;2023-06-04T07:47:42;17.00;96.70
18948;DHT22;9607;51.600;7.558;2023-06-04T07:50:10;17.10;97.10
18948;DHT22;9607;51.600;7.558;2023-06-04T07:52:37;17.20;95.60
18948;DHT22;9607;51.600;7.558;2023-06-04T07:55:04;17.40;95.10
18948;DHT22;9607;51.600;7.558;2023-06-04T07:57:31;17.50;94.70
18948;DHT22;9607;51.600;7.558;2023-06-04T07:59:58;17.60;94.90
18948;DHT22;9607;51.600;7.558;2023-06-04T08:02:25;17.60;94.00
18948;DHT22;9607;51.600;7.558;2023-06-04T08:04:53;17.60;93.90
18948;DHT22;9607;51.600;7.558;2023-06-04T08:07:20;17.70;94.00
18948;DHT22;9607;51.600;7.558;2023-06-04T08:09:46;17.70;93.90
18948;DHT22;9607;51.600;7.558;2023-06-04T08:12:13;17.80;93.50
18948;DHT22;9607;51.600;7.558;2023-06-04T08:14:41;17.80;92.80
18948;DHT22;9607;51.600;7.558;2023-06-04T08:17:08;17.90;93.40
18948;DHT22;9607;51.600;7.558;2023-06-04T08:19:35;18.00;93.40
18948;DHT22;9607;51.600;7.558;2023-06-04T08:22:03;18.00;93.20
18948;DHT22;9607;51.600;7.558;2023-06-04T08:24:31;18.20;92.60
18948;DHT22;9607;51.600;7.558;2023-06-04T08:26:58;18.20;92.00
18948;DHT22;9607;51.600;7.558;2023-06-04T08:29:25;18.30;92.00
18948;DHT22;9607;51.600;7.558;2023-06-04T08:31:52;18.40;90.50
18948;DHT22;9607;51.600;7.558;2023-06-04T08:34:19;18.40;90.20
18948;DHT22;9607;51.600;7.558;2023-06-04T08:36:45;18.40;89.20
18948;DHT22;9607;51.600;7.558;2023-06-04T08:39:14;18.50;87.80
18948;DHT22;9607;51.600;7.558;2023-06-04T08:41:43;18.60;87.70
18948;DHT22;9607;51.600;7.558;2023-06-04T08:44:11;18.70;85.90
18948;DHT22;9607;51.600;7.558;2023-06-04T08:46:38;18.80;86.90
18948;DHT22;9607;51.600;7.558;2023-06-04T08:49:06;18.80;85.10
18948;DHT22;9607;51.600;7.558;2023-06-04T08:51:36;18.90;84.90
18948;DHT22;9607;51.600;7.558;2023-06-04T08:54:04;19.00;82.80
18948;DHT22;9607;51.600;7.558;2023-06-04T08:56:34;19.20;82.20
18948;DHT22;9607;51.600;7.558;2023-06-04T08:59:03;19.30;81.30
18948;DHT22;9607;51.600;7.558;2023-06-04T09:01:31;19.40;78.30
18948;DHT22;9607;51.600;7.558;2023-06-04T09:04:01;19.50;77.40
18948;DHT22;9607;51.600;7.558;2023-06-04T09:06:30;19.50;77.60
18948;DHT22;9607;51.600;7.558;2023-06-04T09:08:57;19.60;78.30
18948;DHT22;9607;51.600;7.558;2023-06-04T09:11:27;19.60;77.20
18948;DHT22;9607;51.600;7.558;2023-06-04T09:13:59;19.70;76.20
18948;DHT22;9607;51.600;7.558;2023-06-04T09:16:27;19.80;76.10
18948;DHT22;9607;51.600;7.558;2023-06-04T09:19:01;19.90;74.60
18948;DHT22;9607;51.600;7.558;2023-06-04T09:21:28;20.00;74.70
18948;DHT22;9607;51.600;7.558;2023-06-04T09:23:55;20.00;74.10
18948;DHT22;9607;51.600;7.558;2023-06-04T09:26:22;20.10;70.60
18948;DHT22;9607;51.600;7.558;2023-06-04T09:28:50;20.10;67.30
18948;DHT22;9607;51.600;7.558;2023-06-04T09:31:19;20.30;65.80
18948;DHT22;9607;51.600;7.558;2023-06-04T09:33:49;20.30;67.30
18948;DHT22;9607;51.600;7.558;2023-06-04T09:36:16;20.40;67.00
18948;DHT22;9607;51.600;7.558;2023-06-04T09:38:43;20.50;67.80
18948;DHT22;9607;51.600;7.558;2023-06-04T09:41:12;20.60;68.40
18948;DHT22;9607;51.600;7.558;2023-06-04T09:43:38;20.70;66.90
18948;DHT22;9607;51.600;7.558;2023-06-04T09:46:10;20.80;64.60
18948;DHT22;9607;51.600;7.558;2023-06-04T09:48:39;20.90;64.60
18948;DHT22;9607;51.600;7.558;2023-06-04T09:51:07;21.00;63.80
18948;DHT22;9607;51.600;7.558;2023-06-04T09:53:34;21.10;62.40
18948;DHT22;9607;51.600;7.558;2023-06-04T09:56:02;21.20;60.90
18948;DHT22;9607;51.600;7.558;2023-06-04T09:58:30;21.30;59.60
18948;DHT22;9607;51.600;7.558;2023-06-04T10:00:58;21.30;59.80
18948;DHT22;9607;51.600;7.558;2023-06-04T10:03:25;21.30;58.50
18948;DHT22;9607;51.600;7.558;2023-06-04T10:05:58;21.40;58.00
18948;DHT22;9607;51.600;7.558;2023-06-04T10:08:27;21.60;58.30
18948;DHT22;9607;51.600;7.558;2023-06-04T10:10:56;21.70;56.30
18948;DHT22;9607;51.600;7.558;2023-06-04T10:13:25;21.80;53.70
18948;DHT22;9607;51.600;7.558;2023-06-04T10:15:54;21.90;52.60
18948;DHT22;9607;51.600;7.558;2023-06-04T10:18:23;22.10;51.30
18948;DHT22;9607;51.600;7.558;2023-06-04T10:20:53;22.10;50.60
18948;DHT22;9607;51.600;7.558;2023-06-04T10:23:22;22.30;50.20
18948;DHT22;9607;51.600;7.558;2023-06-04T10:25:50;22.30;51.30
18948;DHT22;9607;51.600;7.558;2023-06-04T10:28:18;22.30;51.00
18948;DHT22;9607;51.600;7.558;2023-06-04T10:30:45;22.30;52.00
18948;DHT22;9607;51.600;7.558;2023-06-04T10:33:13;22.30;51.80
18948;DHT22;9607;51.600;7.558;2023-06-04T10:35:41;22.30;51.80
18948;DHT22;9607;51.600;7.558;2023-06-04T10:38:10;22.40;52.20
18948;DHT22;9607;51.600;7.558;2023-06-04T10:40:40;22.50;51.90
18948;DHT22;9607;51.600;7.558;2023-06-04T10:43:08;22.70;52.10
18948;DHT22;9607;51.600;7.558;2023-06-04T10:45:35;22.70;49.60
18948;DHT22;9607;51.600;7.558;2023-06-04T10:48:03;22.90;49.00
18948;DHT22;9607;51.600;7.558;2023-06-04T10:50:31;23.00;48.50
18948;DHT22;9607;51.600;7.558;2023-06-04T10:52:58;23.20;47.90
18948;DHT22;9607;51.600;7.558;2023-06-04T10:55:28;23.30;47.80
18948;DHT22;9607;51.600;7.558;2023-06-04T10:57:58;23.30;47.30
18948;DHT22;9607;51.600;7.558;2023-06-04T11:00:35;23.40;45.90
18948;DHT22;9607;51.600;7.558;2023-06-04T11:03:02;23.40;45.90
18948;DHT22;9607;51.600;7.558;2023-06-04T11:05:34;23.40;45.80
18948;DHT22;9607;51.600;7.558;2023-06-04T11:08:01;23.60;45.30
18948;DHT22;9607;51.600;7.558;2023-06-04T11:10:31;23.60;45.00
18948;DHT22;9607;51.600;7.558;2023-06-04T11:13:01;23.80;45.30
18948;DHT22;9607;51.600;7.558;2023-06-04T11:15:37;23.90;45.10
18948;DHT22;9607;51.600;7.558;2023-06-04T11:18:04;23.90;44.00
18948;DHT22;9607;51.600;7.558;2023-06-04T11:20:31;23.90;43.30
18948;DHT22;9607;51.600;7.558;2023-06-04T11:22:59;24.00;43.20
18948;DHT22;9607;51.600;7.558;2023-06-04T11:25:29;24.10;43.60
18948;DHT22;9607;51.600;7.558;2023-06-04T11:27:56;24.10;44.20
18948;DHT22;9607;51.600;7.558;2023-06-04T11:30:24;24.20;44.50
18948;DHT22;9607;51.600;7.558;2023-06-04T11:33:00;24.30;44.50
18948;DHT22;9607;51.600;7.558;2023-06-04T11:35:27;24.40;43.50
18948;DHT22;9607;51.600;7.558;2023-06-04T11:37:54;24.40;43.80
18948;DHT22;9607;51.600;7.558;2023-06-04T11:40:22;24.50;43.80
18948;DHT22;9607;51.600;7.558;2023-06-04T11:42:49;24.70;43.30
18948;DHT22;9607;51.600;7.558;2023-06-04T11:45:17;24.70;42.40
18948;DHT22;9607;51.600;7.558;2023-06-04T11:47:47;24.80;43.10
18948;DHT22;9607;51.600;7.558;2023-06-04T11:50:14;24.90;42.70
18948;DHT22;9607;51.600;7.558;2023-06-04T11:52:41;25.00;41.90
18948;DHT22;9607;51.600;7.558;2023-06-04T11:55:08;25.00;41.10
18948;DHT22;9607;51.600;7.558;2023-06-04T11:57:36;25.10;41.00
18948;DHT22;9607;51.600;7.558;2023-06-04T12:00:04;25.10;40.00
18948;DHT22;9607;51.600;7.558;2023-06-04T12:02:33;25.20;39.80
18948;DHT22;9607;51.600;7.558;2023-06-04T12:05:12;25.20;40.70
18948;DHT22;9607;51.600;7.558;2023-06-04T12:07:38;25.30;40.80
18948;DHT22;9607;51.600;7.558;2023-06-04T12:10:06;25.30;39.70
18948;DHT22;9607;51.600;7.558;2023-06-04T12:12:33;25.50;39.90
18948;DHT22;9607;51.600;7.558;2023-06-04T12:15:00;26.30;37.70
18948;DHT22;9607;51.600;7.558;2023-06-04T12:17:27;27.30;35.80
18948;DHT22;9607;51.600;7.558;2023-06-04T12:19:54;28.40;35.40
18948;DHT22;9607;51.600;7.558;2023-06-04T12:22:24;29.60;34.90
18948;DHT22;9607;51.600;7.558;2023-06-04T12:24:53;30.60;34.60
18948;DHT22;9607;51.600;7.558;2023-06-04T12:27:22;31.50;32.10
18948;DHT22;9607;51.600;7.558;2023-06-04T12:29:57;32.20;31.00
18948;DHT22;9607;51.600;7.558;2023-06-04T12:32:24;32.90;30.60
18948;DHT22;9607;51.600;7.558;2023-06-04T12:34:51;33.70;30.10
18948;DHT22;9607;51.600;7.558;2023-06-04T12:37:18;34.50;29.70
18948;DHT22;9607;51.600;7.558;2023-06-04T12:39:46;35.10;28.20
18948;DHT22;9607;51.600;7.558;2023-06-04T12:42:13;35.70;27.50
18948;DHT22;9607;51.600;7.558;2023-06-04T12:44:40;36.00;27.30
18948;DHT22;9607;51.600;7.558;2023-06-04T12:47:08;36.10;26.30
18948;DHT22;9607;51.600;7.558;2023-06-04T12:49:35;36.30;25.60
18948;DHT22;9607;51.600;7.558;2023-06-04T12:52:02;36.40;25.20
18948;DHT22;9607;51.600;7.558;2023-06-04T12:54:29;36.60;24.80
18948;DHT22;9607;51.600;7.558;2023-06-04T12:56:58;36.70;24.90
18948;DHT22;9607;51.600;7.558;2023-06-04T12:59:25;37.20;26.00
18948;DHT22;9607;51.600;7.558;2023-06-04T13:01:53;37.70;25.70
18948;DHT22;9607;51.600;7.558;2023-06-04T13:04:20;37.80;25.50
18948;DHT22;9607;51.600;7.558;2023-06-04T13:06:49;38.00;26.00
18948;DHT22;9607;51.600;7.558;2023-06-04T13:09:17;38.10;25.20
18948;DHT22;9607;51.600;7.558;2023-06-04T13:11:46;37.80;25.10
18948;DHT22;9607;51.600;7.558;2023-06-04T13:14:14;37.20;25.60
18948;DHT22;9607;51.600;7.558;2023-06-04T13:16:41;36.90;25.90
18948;DHT22;9607;51.600;7.558;2023-06-04T13:19:07;36.50;26.40
18948;DHT22;9607;51.600;7.558;2023-06-04T13:21:35;36.00;26.80
18948;DHT22;9607;51.600;7.558;2023-06-04T13:24:02;36.00;26.80
18948;DHT22;9607;51.600;7.558;2023-06-04T13:26:28;35.70;26.90
18948;DHT22;9607;51.600;7.558;2023-06-04T13:28:55;34.90;27.50
18948;DHT22;9607;51.600;7.558;2023-06-04T13:31:23;33.90;27.90
18948;DHT22;9607;51.600;7.558;2023-06-04T13:33:50;32.90;28.80
18948;DHT22;9607;51.600;7.558;2023-06-04T13:36:17;32.10;29.70
18948;DHT22;9607;51.600;7.558;2023-06-04T13:38:44;31.40;30.30
18948;DHT22;9607;51.600;7.558;2023-06-04T13:41:10;31.00;31.30
18948;DHT22;9607;51.600;7.558;2023-06-04T13:43:37;30.70;31.90
18948;DHT22;9607;51.600;7.558;2023-06-04T13:46:04;30.50;31.60
18948;DHT22;9607;51.600;7.558;2023-06-04T13:48:33;30.30;31.50
18948;DHT22;9607;51.600;7.558;2023-06-04T13:51:00;30.30;32.20
18948;DHT22;9607;51.600;7.558;2023-06-04T13:53:27;30.20;32.80
18948;DHT22;9607;51.600;7.558;2023-06-04T13:55:53;30.00;33.30
18948;DHT22;9607;51.600;7.558;2023-06-04T13:58:24;29.70;33.50
18948;DHT22;9607;51.600;7.558;2023-06-04T14:00:51;29.10;34.00
18948;DHT22;9607;51.600;7.558;2023-06-04T14:03:19;28.70;33.80
18948;DHT22;9607;51.600;7.558;2023-06-04T14:05:48;28.40;35.30
18948;DHT22;9607;51.600;7.558;2023-06-04T14:08:14;28.10;35.00
18948;DHT22;9607;51.600;7.558;2023-06-04T14:10:42;27.80;36.00
18948;DHT22;9607;51.600;7.558;2023-06-04T14:13:08;27.70;36.50
18948;DHT22;9607;51.600;7.558;2023-06-04T14:15:35;27.50;36.70
18948;DHT22;9607;51.600;7.558;2023-06-04T14:18:03;27.30;36.80
18948;DHT22;9607;51.600;7.558;2023-06-04T14:20:30;27.10;36.60
18948;DHT22;9607;51.600;7.558;2023-06-04T14:22:58;27.10;38.20
18948;DHT22;9607;51.600;7.558;2023-06-04T14:25:25;27.10;37.50
18948;DHT22;9607;51.600;7.558;2023-06-04T14:27:53;26.90;36.30
18948;DHT22;9607;51.600;7.558;2023-06-04T14:30:20;27.00;38.00
18948;DHT22;9607;51.600;7.558;2023-06-04T14:32:47;27.10;38.70
18948;DHT22;9607;51.600;7.558;2023-06-04T14:35:13;27.20;37.90
18948;DHT22;9607;51.600;7.558;2023-06-04T14:37:40;27.20;37.50
18948;DHT22;9607;51.600;7.558;2023-06-04T14:40:09;27.50;37.60
18948;DHT22;9607;51.600;7.558;2023-06-04T14:42:36;28.00;37.10
18948;DHT22;9607;51.600;7.558;2023-06-04T14:45:03;28.30;36.50
18948;DHT22;9607;51.600;7.558;2023-06-04T14:47:30;28.60;36.00
18948;DHT22;9607;51.600;7.558;2023-06-04T14:49:57;28.90;35.60
18948;DHT22;9607;51.600;7.558;2023-06-04T14:52:24;29.00;34.50
18948;DHT22;9607;51.600;7.558;2023-06-04T14:54:51;29.30;34.50
18948;DHT22;9607;51.600;7.558;2023-06-04T14:57:19;29.60;34.50
18948;DHT22;9607;51.600;7.558;2023-06-04T14:59:48;29.80;33.40
18948;DHT22;9607;51.600;7.558;2023-06-04T15:02:15;30.30;33.40
18948;DHT22;9607;51.600;7.558;2023-06-04T15:04:45;31.00;33.00
18948;DHT22;9607;51.600;7.558;2023-06-04T15:07:11;31.90;32.60
18948;DHT22;9607;51.600;7.558;2023-06-04T15:09:38;33.40;30.70
18948;DHT22;9607;51.600;7.558;2023-06-04T15:12:05;35.20;29.80
18948;DHT22;9607;51.600;7.558;2023-06-04T15:14:33;37.20;28.10
18948;DHT22;9607;51.600;7.558;2023-06-04T15:17:00;38.40;27.20
18948;DHT22;9607;51.600;7.558;2023-06-04T15:19:27;39.40;25.60
18948;DHT22;9607;51.600;7.558;2023-06-04T15:21:54;39.90;25.40
18948;DHT22;9607;51.600;7.558;2023-06-04T15:24:20;40.50;24.80
18948;DHT22;9607;51.600;7.558;2023-06-04T15:26:48;41.20;25.30
18948;DHT22;9607;51.600;7.558;2023-06-04T15:29:15;42.00;24.50
18948;DHT22;9607;51.600;7.558;2023-06-04T15:31:43;42.90;23.80
18948;DHT22;9607;51.600;7.558;2023-06-04T15:34:11;43.80;23.00
18948;DHT22;9607;51.600;7.558;2023-06-04T15:36:39;44.30;21.90
18948;DHT22;9607;51.600;7.558;2023-06-04T15:39:05;44.40;21.70
18948;DHT22;9607;51.600;7.558;2023-06-04T15:41:32;44.70;21.70
18948;DHT22;9607;51.600;7.558;2023-06-04T15:43:59;45.40;21.80
18948;DHT22;9607;51.600;7.558;2023-06-04T15:46:26;45.90;21.00
18948;DHT22;9607;51.600;7.558;2023-06-04T15:48:54;46.30;20.70
18948;DHT22;9607;51.600;7.558;2023-06-04T15:51:21;46.60;20.80
18948;DHT22;9607;51.600;7.558;2023-06-04T15:53:48;47.00;20.70